createdAt,value
2019-01-17T06:47:41.983Z,998.06
2019-01-17T06:48:41.953Z,998.00
2019-01-17T06:49:41.939Z,998.09
2019-01-17T06:50:41.929Z,998.07
2019-01-17T06:51:41.943Z,998.10
2019-01-17T06:52:41.913Z,998.06
2019-01-17T06:53:41.908Z,998.12
2019-01-17T06:54:41.886Z,998.09
2019-01-17T06:55:41.876Z,998.10
2019-01-17T06:56:41.906Z,998.14
2019-01-17T06:57:41.858Z,998.13
2019-01-17T06:58:41.854Z,998.11
2019-01-17T06:59:41.840Z,998.09
2019-01-17T07:00:41.828Z,998.12
2019-01-17T07:01:41.825Z,998.09
2019-01-17T07:02:41.839Z,998.05
2019-01-17T07:03:41.796Z,998.07
2019-01-17T07:04:41.804Z,998.08
2019-01-17T07:05:41.777Z,998.09
2019-01-17T07:06:41.766Z,998.09
2019-01-17T07:07:41.775Z,998.10
2019-01-17T07:08:41.750Z,998.12
2019-01-17T07:09:41.735Z,998.10
2019-01-17T07:10:41.726Z,998.09
2019-01-17T07:11:41.712Z,998.14
2019-01-17T07:12:41.727Z,998.11
2019-01-17T07:13:41.753Z,998.12
2019-01-17T07:14:41.682Z,998.10
2019-01-17T07:15:41.679Z,998.14
2019-01-17T07:16:41.666Z,998.09
2019-01-17T07:17:41.671Z,998.10
2019-01-17T07:18:41.643Z,998.12
2019-01-17T07:19:41.632Z,998.11
2019-01-17T07:20:41.620Z,998.13
2019-01-17T07:21:50.155Z,998.14
2019-01-17T07:22:41.625Z,998.12
2019-01-17T07:23:41.589Z,998.06
2019-01-17T07:24:41.577Z,998.14
2019-01-17T07:25:41.568Z,998.12
2019-01-17T07:26:41.559Z,998.16
2019-01-17T07:27:41.569Z,998.13
2019-01-17T07:28:41.544Z,998.04
2019-01-17T07:29:41.526Z,998.15
2019-01-17T07:30:41.515Z,998.14
2019-01-17T07:31:41.508Z,998.11
2019-01-17T07:32:41.522Z,998.15
2019-01-17T07:33:41.486Z,998.11
2019-01-17T07:34:41.481Z,998.12
2019-01-17T07:35:41.464Z,998.11
2019-01-17T07:36:41.453Z,998.14
2019-01-17T07:37:41.477Z,998.05
2019-01-17T07:38:41.434Z,998.05
2019-01-17T07:39:41.423Z,998.01
2019-01-17T07:40:41.425Z,998.02
2019-01-17T07:41:41.402Z,998.04
2019-01-17T07:42:41.416Z,998.01
2019-01-17T07:43:41.389Z,998.07
2019-01-17T07:44:41.374Z,998.02
2019-01-17T07:45:41.368Z,997.99
2019-01-17T07:46:41.361Z,998.02
2019-01-17T07:47:41.386Z,998.06
2019-01-17T07:48:41.348Z,998.08
2019-01-17T07:49:41.321Z,998.11
2019-01-17T07:50:41.309Z,998.13
2019-01-17T07:51:41.301Z,998.16
2019-01-17T07:52:41.326Z,998.13
2019-01-17T07:53:41.324Z,998.19
2019-01-17T07:54:41.276Z,998.19
2019-01-17T07:55:47.461Z,998.21
2019-01-17T07:56:42.248Z,998.16
2019-01-17T07:57:41.240Z,998.21
2019-01-17T07:58:41.257Z,998.20
2019-01-17T07:59:41.218Z,998.19
2019-01-17T08:00:41.214Z,998.21
2019-01-17T08:01:41.198Z,998.20
2019-01-17T08:02:41.189Z,998.23
2019-01-17T08:03:41.196Z,998.21
2019-01-17T08:04:41.175Z,998.24
2019-01-17T08:05:41.182Z,998.19
2019-01-17T08:06:41.151Z,998.28
2019-01-17T08:07:41.135Z,998.29
2019-01-17T08:08:41.143Z,998.29
2019-01-17T08:09:41.116Z,998.28
2019-01-17T08:10:41.105Z,998.34
2019-01-17T08:11:41.115Z,998.32
2019-01-17T08:12:41.112Z,998.31
2019-01-17T08:13:41.096Z,998.33
2019-01-17T08:14:41.064Z,998.32
2019-01-17T08:15:41.054Z,998.33
2019-01-17T08:16:41.055Z,998.35
2019-01-17T08:17:41.033Z,998.37
2019-01-17T08:18:41.069Z,998.32
2019-01-17T08:19:41.041Z,998.30
2019-01-17T08:20:41.017Z,998.29
2019-01-17T08:21:40.996Z,998.33
2019-01-17T08:22:40.984Z,998.28
2019-01-17T08:23:41.016Z,998.25
2019-01-17T08:24:40.966Z,998.23
2019-01-17T08:25:40.955Z,998.24
2019-01-17T08:26:41.041Z,998.22
2019-01-17T08:27:40.992Z,998.28
2019-01-17T08:28:40.939Z,998.26
2019-01-17T08:29:40.936Z,998.29
2019-01-17T08:30:40.906Z,998.27
2019-01-17T08:31:40.905Z,998.26
2019-01-17T08:32:40.881Z,998.31
2019-01-17T08:33:40.875Z,998.29
2019-01-17T08:34:40.881Z,998.28
2019-01-17T08:35:40.852Z,998.26
2019-01-17T08:36:40.846Z,998.30
2019-01-17T08:37:40.848Z,998.23
2019-01-17T08:38:40.826Z,998.22
2019-01-17T08:39:40.826Z,998.24
2019-01-17T08:40:40.801Z,998.20
2019-01-17T08:41:40.794Z,998.23
2019-01-17T08:42:40.780Z,998.24
2019-01-17T08:43:40.767Z,998.20
2019-01-17T08:44:40.818Z,998.20
2019-01-17T08:45:40.753Z,998.26
2019-01-17T08:46:40.739Z,998.25
2019-01-17T08:47:40.731Z,998.27
2019-01-17T08:48:40.718Z,998.29
2019-01-17T08:49:40.727Z,998.30
2019-01-17T08:50:40.709Z,998.30
2019-01-17T08:51:40.689Z,998.25
2019-01-17T08:52:40.678Z,998.26
2019-01-17T08:53:40.671Z,998.26
2019-01-17T08:54:40.687Z,998.23
2019-01-17T08:55:40.648Z,998.24
2019-01-17T08:56:40.649Z,998.24
2019-01-17T08:57:40.639Z,998.21
2019-01-17T08:58:40.614Z,998.20
2019-01-17T08:59:40.646Z,998.16
2019-01-17T09:00:40.603Z,998.15
2019-01-17T09:01:40.587Z,998.15
2019-01-17T09:02:40.582Z,998.12
2019-01-17T09:03:40.568Z,998.16
2019-01-17T09:04:40.566Z,998.18
2019-01-17T09:05:40.581Z,998.17
2019-01-17T09:06:40.536Z,998.18
2019-01-17T09:07:40.531Z,998.20
2019-01-17T09:08:40.524Z,998.20
2019-01-17T09:09:40.509Z,998.20
2019-01-17T09:10:40.514Z,998.22
2019-01-17T09:11:40.482Z,998.22
2019-01-17T09:12:40.486Z,998.18
2019-01-17T09:13:40.470Z,998.12
2019-01-17T09:14:40.464Z,998.08
2019-01-17T09:15:40.469Z,998.11
2019-01-17T09:16:40.441Z,998.08
2019-01-17T09:17:40.424Z,998.09
2019-01-17T09:18:40.415Z,998.03
2019-01-17T09:19:40.403Z,998.04
2019-01-17T09:20:40.420Z,998.01
2019-01-17T09:21:40.382Z,998.04
2019-01-17T09:22:40.374Z,997.99
2019-01-17T09:23:40.368Z,997.98
2019-01-17T09:24:40.355Z,998.02
2019-01-17T09:25:40.366Z,998.04
2019-01-17T09:26:40.332Z,998.05
2019-01-17T09:27:40.333Z,998.05
2019-01-17T09:28:40.312Z,997.94
2019-01-17T09:29:40.305Z,997.97
2019-01-17T09:30:40.422Z,998.01
2019-01-17T09:31:40.287Z,997.97
2019-01-17T09:32:40.290Z,998.02
2019-01-17T09:33:40.262Z,997.94
2019-01-17T09:34:40.254Z,997.90
2019-01-17T09:35:40.255Z,997.91
2019-01-17T09:36:40.257Z,997.88
2019-01-17T09:37:40.223Z,997.89
2019-01-17T09:38:40.223Z,997.82
2019-01-17T09:39:40.203Z,997.80
2019-01-17T09:40:40.193Z,997.80
2019-01-17T09:41:40.200Z,997.79
2019-01-17T09:42:40.169Z,997.80
2019-01-17T09:43:40.160Z,997.85
2019-01-17T09:44:40.150Z,997.82
2019-01-17T09:45:40.148Z,997.84
2019-01-17T09:46:40.158Z,997.83
2019-01-17T09:47:40.126Z,997.82
2019-01-17T09:48:40.152Z,997.78
2019-01-17T09:49:40.097Z,997.79
2019-01-17T09:50:40.086Z,997.77
2019-01-17T09:51:40.113Z,997.78
2019-01-17T09:52:40.065Z,997.76
2019-01-17T09:53:40.068Z,997.74
2019-01-17T09:54:40.047Z,997.78
2019-01-17T09:55:40.041Z,997.70
2019-01-17T09:56:40.048Z,997.71
2019-01-17T09:57:40.020Z,997.71
2019-01-17T09:58:40.013Z,997.68
2019-01-17T09:59:39.994Z,997.70
2019-01-17T10:00:39.995Z,997.66
2019-01-17T10:01:39.999Z,997.63
2019-01-17T10:02:39.964Z,997.61
2019-01-17T10:03:39.964Z,997.61
2019-01-17T10:04:39.983Z,997.63
2019-01-17T10:05:39.970Z,997.61
2019-01-17T10:06:39.956Z,997.65
2019-01-17T10:07:39.918Z,997.62
2019-01-17T10:08:39.906Z,997.64
2019-01-17T10:09:39.903Z,997.57
2019-01-17T10:10:39.884Z,997.59
2019-01-17T10:11:39.924Z,997.64
2019-01-17T10:12:39.861Z,997.56
2019-01-17T10:13:39.863Z,997.62
2019-01-17T10:14:39.847Z,997.57
2019-01-17T10:15:39.831Z,997.56
2019-01-17T10:16:39.820Z,997.50
2019-01-17T10:17:39.835Z,997.48
2019-01-17T10:18:39.802Z,997.44
2019-01-17T10:19:39.792Z,997.49
2019-01-17T10:20:39.787Z,997.45
2019-01-17T10:21:39.774Z,997.44
2019-01-17T10:22:39.783Z,997.41
2019-01-17T10:23:39.746Z,997.38
2019-01-17T10:24:39.738Z,997.34
2019-01-17T10:25:39.729Z,997.25
2019-01-17T10:26:39.718Z,997.28
2019-01-17T10:27:39.745Z,997.27
2019-01-17T10:28:39.699Z,997.20
2019-01-17T10:29:39.691Z,997.24
2019-01-17T10:30:39.679Z,997.19
2019-01-17T10:31:39.672Z,997.15
2019-01-17T10:32:39.713Z,997.18
2019-01-17T10:33:39.655Z,997.22
2019-01-17T10:34:39.663Z,997.08
2019-01-17T10:35:39.639Z,997.07
2019-01-17T10:36:39.650Z,997.10
2019-01-17T10:37:39.610Z,997.11
2019-01-17T10:38:39.620Z,997.16
2019-01-17T10:39:39.589Z,997.09
2019-01-17T10:40:39.592Z,996.99
2019-01-17T10:41:39.568Z,996.97
2019-01-17T10:42:39.554Z,997.03
2019-01-17T10:43:39.572Z,997.07
2019-01-17T10:44:39.537Z,997.08
2019-01-17T10:45:39.543Z,997.06
2019-01-17T10:46:39.514Z,997.05
2019-01-17T10:47:39.504Z,997.13
2019-01-17T10:48:39.521Z,997.03
2019-01-17T10:49:39.524Z,996.97
2019-01-17T10:50:39.481Z,997.04
2019-01-17T10:51:39.467Z,997.01
2019-01-17T10:52:39.477Z,996.97
2019-01-17T10:53:39.490Z,996.99
2019-01-17T10:54:39.447Z,997.00
2019-01-17T10:55:39.429Z,997.08
2019-01-17T10:56:41.560Z,996.97
2019-01-17T10:57:39.412Z,996.97
2019-01-17T10:58:39.433Z,997.05
2019-01-17T10:59:39.391Z,997.01
2019-01-17T11:00:39.388Z,997.04
2019-01-17T11:01:39.362Z,997.08
2019-01-17T11:02:39.358Z,997.13
2019-01-17T11:03:39.410Z,997.06
2019-01-17T11:04:39.333Z,997.01
2019-01-17T11:05:39.320Z,996.90
2019-01-17T11:06:39.321Z,996.99
2019-01-17T11:07:39.318Z,996.98
2019-01-17T11:08:39.309Z,996.98
2019-01-17T11:09:39.309Z,996.96
2019-01-17T11:10:39.270Z,996.98
2019-01-17T11:11:39.270Z,996.93
2019-01-17T11:12:39.263Z,997.03
2019-01-17T11:13:39.243Z,997.04
2019-01-17T11:14:39.250Z,996.97
2019-01-17T11:15:39.219Z,996.95
2019-01-17T11:16:39.208Z,996.91
2019-01-17T11:17:39.200Z,996.97
2019-01-17T11:18:39.206Z,997.03
2019-01-17T11:19:39.211Z,996.95
2019-01-17T11:20:39.186Z,996.95
2019-01-17T11:21:39.162Z,996.91
2019-01-17T11:22:39.160Z,996.87
2019-01-17T11:23:39.141Z,996.86
2019-01-17T11:24:39.160Z,996.83
2019-01-17T11:25:39.134Z,996.98
2019-01-17T11:26:39.120Z,996.96
2019-01-17T11:27:39.100Z,996.80
2019-01-17T11:28:39.090Z,997.01
2019-01-17T11:29:39.141Z,997.11
2019-01-17T11:30:39.071Z,996.99
2019-01-17T11:31:39.060Z,997.00
2019-01-17T11:32:39.055Z,996.99
2019-01-17T11:33:39.039Z,997.05
2019-01-17T11:34:39.026Z,997.04
2019-01-17T11:35:39.037Z,997.11
2019-01-17T11:36:39.017Z,997.09
2019-01-17T11:37:39.003Z,996.99
2019-01-17T11:38:38.991Z,997.12
2019-01-17T11:39:38.976Z,997.19
2019-01-17T11:40:39.026Z,997.12
2019-01-17T11:41:38.958Z,997.18
2019-01-17T11:42:38.964Z,997.15
2019-01-17T11:43:38.941Z,997.15
2019-01-17T11:44:38.928Z,997.14
2019-01-17T11:45:38.935Z,997.20
2019-01-17T11:46:38.904Z,997.18
2019-01-17T11:47:38.895Z,997.16
2019-01-17T11:48:38.891Z,997.17
2019-01-17T11:49:38.874Z,997.15
2019-01-17T11:50:38.905Z,997.17
2019-01-17T11:51:38.854Z,997.17
2019-01-17T11:52:38.843Z,997.18
2019-01-17T11:53:38.834Z,997.20
2019-01-17T11:54:38.827Z,997.12
2019-01-17T11:55:38.832Z,997.19
2019-01-17T11:56:40.985Z,997.16
2019-01-17T11:57:38.796Z,997.14
2019-01-17T11:58:38.810Z,997.17
2019-01-17T11:59:38.782Z,997.20
2019-01-17T12:00:38.812Z,997.12
2019-01-17T12:01:38.756Z,997.14
2019-01-17T12:02:39.231Z,997.11
2019-01-17T12:03:38.733Z,997.14
2019-01-17T12:04:38.732Z,997.12
2019-01-17T12:05:38.718Z,997.11
2019-01-17T12:06:38.719Z,997.13
2019-01-17T12:07:38.696Z,997.12
2019-01-17T12:08:38.684Z,997.21
2019-01-17T12:09:38.710Z,997.10
2019-01-17T12:10:38.660Z,997.11
2019-01-17T12:11:38.677Z,997.16
2019-01-17T12:12:38.664Z,997.05
2019-01-17T12:13:38.634Z,997.08
2019-01-17T12:14:38.623Z,997.06
2019-01-17T12:15:38.614Z,997.12
2019-01-17T12:16:38.638Z,997.14
2019-01-17T12:17:38.588Z,997.13
2019-01-17T12:18:38.585Z,997.15
2019-01-17T12:19:38.568Z,997.24
2019-01-17T12:20:38.559Z,997.29
2019-01-17T12:21:38.573Z,997.34
2019-01-17T12:22:38.541Z,997.22
2019-01-17T12:23:38.528Z,997.32
2019-01-17T12:24:38.516Z,997.39
2019-01-17T12:25:38.510Z,997.38
2019-01-17T12:26:38.530Z,997.38
2019-01-17T12:27:42.527Z,997.47
2019-01-17T12:28:38.506Z,997.53
2019-01-17T12:29:38.468Z,997.54
2019-01-17T12:30:38.471Z,997.49
2019-01-17T12:31:38.469Z,997.58
2019-01-17T12:32:38.439Z,997.60
2019-01-17T12:33:38.433Z,997.69
2019-01-17T12:34:38.417Z,997.38
2019-01-17T12:35:38.415Z,997.64
2019-01-17T12:36:38.413Z,997.64
2019-01-17T12:37:38.387Z,997.76
2019-01-17T12:38:38.382Z,997.74
2019-01-17T12:39:38.365Z,997.73
2019-01-17T12:40:38.355Z,997.80
2019-01-17T12:41:38.379Z,997.74
2019-01-17T12:42:38.334Z,997.82
2019-01-17T12:43:38.326Z,997.85
2019-01-17T12:44:38.331Z,997.77
2019-01-17T12:45:38.305Z,997.79
2019-01-17T12:46:38.325Z,997.89
2019-01-17T12:47:38.292Z,997.91
2019-01-17T12:48:38.272Z,997.91
2019-01-17T12:49:38.265Z,997.95
2019-01-17T12:50:38.253Z,997.85
2019-01-17T12:51:38.242Z,997.96
2019-01-17T12:52:38.262Z,997.90
2019-01-17T12:53:38.227Z,997.95
2019-01-17T12:54:38.211Z,997.97
2019-01-17T12:55:38.269Z,997.96
2019-01-17T12:56:38.192Z,997.92
2019-01-17T12:57:38.204Z,997.94
2019-01-17T12:58:38.175Z,998.01
2019-01-17T12:59:38.361Z,997.93
2019-01-17T13:00:38.184Z,998.00
2019-01-17T13:01:38.142Z,998.01
2019-01-17T13:02:38.157Z,997.99
2019-01-17T13:03:38.119Z,998.03
2019-01-17T13:04:38.120Z,998.09
2019-01-17T13:05:38.097Z,998.13
2019-01-17T13:06:38.119Z,998.14
2019-01-17T13:07:38.099Z,998.16
2019-01-17T13:08:38.072Z,998.19
2019-01-17T13:09:38.078Z,998.17
2019-01-17T13:10:38.055Z,998.26
2019-01-17T13:11:38.037Z,998.21
2019-01-17T13:12:38.050Z,998.21
2019-01-17T13:13:38.018Z,998.25
2019-01-17T13:14:38.011Z,998.28
2019-01-17T13:15:37.994Z,998.28
2019-01-17T13:16:37.993Z,998.29
2019-01-17T13:17:38.023Z,998.30
2019-01-17T13:18:37.966Z,998.34
2019-01-17T13:19:37.970Z,998.29
2019-01-17T13:20:37.943Z,998.31
2019-01-17T13:21:37.947Z,998.37
2019-01-17T13:22:37.954Z,998.40
2019-01-17T13:23:37.915Z,998.39
2019-01-17T13:24:37.906Z,998.38
2019-01-17T13:25:37.894Z,998.38
2019-01-17T13:26:37.882Z,998.34
2019-01-17T13:27:37.885Z,998.33
2019-01-17T13:28:37.885Z,998.29
2019-01-17T13:29:37.881Z,998.31
2019-01-17T13:30:37.845Z,998.32
2019-01-17T13:31:37.832Z,998.31
2019-01-17T13:32:37.837Z,998.35
2019-01-17T13:33:37.836Z,998.39
2019-01-17T13:34:37.807Z,998.33
2019-01-17T13:35:37.794Z,998.38
2019-01-17T13:36:40.529Z,998.38
2019-01-17T13:37:37.770Z,998.39
2019-01-17T13:38:37.797Z,998.37
2019-01-17T13:39:37.751Z,998.39
2019-01-17T13:40:37.743Z,998.37
2019-01-17T13:41:37.731Z,998.45
2019-01-17T13:42:37.725Z,998.39
2019-01-17T13:43:37.726Z,998.41
2019-01-17T13:44:37.699Z,998.46
2019-01-17T13:45:37.688Z,998.46
2019-01-17T13:46:37.690Z,998.53
2019-01-17T13:47:37.674Z,998.61
2019-01-17T13:48:37.766Z,998.63
2019-01-17T13:49:37.650Z,998.61
2019-01-17T13:50:37.636Z,998.50
2019-01-17T13:51:37.627Z,998.67
2019-01-17T13:52:37.624Z,998.65
2019-01-17T13:53:37.629Z,998.70
2019-01-17T13:54:37.627Z,998.75
2019-01-17T13:55:37.597Z,998.69
2019-01-17T13:56:37.577Z,998.78
2019-01-17T13:57:37.573Z,998.79
2019-01-17T13:58:37.577Z,998.74
2019-01-17T13:59:37.570Z,998.81
2019-01-17T14:00:37.535Z,998.78
2019-01-17T14:01:37.526Z,998.86
2019-01-17T14:02:37.516Z,998.76
2019-01-17T14:03:37.506Z,998.84
2019-01-17T14:04:37.553Z,998.87
2019-01-17T14:05:37.500Z,998.88
2019-01-17T14:06:37.484Z,998.84
2019-01-17T14:07:37.464Z,998.85
2019-01-17T14:08:37.459Z,998.92
2019-01-17T14:09:37.472Z,998.90
2019-01-17T14:10:37.446Z,998.89
2019-01-17T14:11:37.424Z,998.93
2019-01-17T14:12:37.429Z,998.95
2019-01-17T14:13:37.415Z,999.03
2019-01-17T14:14:37.462Z,999.09
2019-01-17T14:15:37.384Z,998.94
2019-01-17T14:16:37.424Z,999.11
2019-01-17T14:17:37.413Z,999.08
2019-01-17T14:18:37.354Z,999.17
2019-01-17T14:19:37.345Z,999.15
2019-01-17T14:20:37.400Z,999.23
2019-01-17T14:21:37.319Z,999.23
2019-01-17T14:22:37.321Z,999.24
2019-01-17T14:23:37.311Z,999.32
2019-01-17T14:24:37.292Z,999.30
2019-01-17T14:25:37.300Z,999.36
2019-01-17T14:26:37.269Z,999.39
2019-01-17T14:27:37.271Z,999.38
2019-01-17T14:28:37.252Z,999.46
2019-01-17T14:29:37.239Z,999.40
2019-01-17T14:30:37.247Z,999.48
2019-01-17T14:31:37.228Z,999.54
2019-01-17T14:32:37.212Z,999.51
2019-01-17T14:33:37.206Z,999.65
2019-01-17T14:34:37.190Z,999.69
2019-01-17T14:35:37.196Z,999.66
2019-01-17T14:36:37.201Z,999.68
2019-01-17T14:37:37.165Z,999.69
2019-01-17T14:38:37.152Z,999.79
2019-01-17T14:39:37.137Z,999.83
2019-01-17T14:40:37.161Z,999.85
2019-01-17T14:41:37.114Z,999.88
2019-01-17T14:42:37.106Z,999.90
2019-01-17T14:43:37.104Z,999.93
2019-01-17T14:44:37.127Z,999.95
2019-01-17T14:45:37.105Z,999.93
2019-01-17T14:46:37.074Z,1000.01
2019-01-17T14:47:37.052Z,999.97
2019-01-17T14:48:37.045Z,999.94
2019-01-17T14:49:37.051Z,999.95
2019-01-17T14:50:37.022Z,999.99
2019-01-17T14:51:37.038Z,1000.04
2019-01-17T14:52:37.010Z,1000.03
2019-01-17T14:53:37.010Z,1000.08
2019-01-17T14:54:36.987Z,1000.13
2019-01-17T14:55:36.975Z,1000.22
2019-01-17T14:56:36.984Z,1000.18
2019-01-17T14:57:36.950Z,1000.22
2019-01-17T14:58:36.942Z,1000.28
2019-01-17T14:59:36.936Z,1000.24
2019-01-17T15:00:36.924Z,1000.36
2019-01-17T15:01:36.933Z,1000.31
2019-01-17T15:02:36.899Z,1000.34
2019-01-17T15:03:36.887Z,1000.37
2019-01-17T15:04:36.877Z,1000.42
2019-01-17T15:05:36.876Z,1000.45
2019-01-17T15:06:36.882Z,1000.47
2019-01-17T15:07:36.844Z,1000.48
2019-01-17T15:08:36.857Z,1000.51
2019-01-17T15:09:36.829Z,1000.57
2019-01-17T15:10:36.818Z,1000.58
2019-01-17T15:11:36.849Z,1000.56
2019-01-17T15:12:36.795Z,1000.53
2019-01-17T15:13:36.792Z,1000.61
2019-01-17T15:14:36.776Z,1000.58
2019-01-17T15:15:36.763Z,1000.52
2019-01-17T15:16:36.768Z,1000.62
2019-01-17T15:17:36.761Z,1000.65
2019-01-17T15:18:36.742Z,1000.72
2019-01-17T15:19:36.723Z,1000.76
2019-01-17T15:20:36.728Z,1000.78
2019-01-17T15:21:36.700Z,1000.75
2019-01-17T15:22:36.713Z,1000.78
2019-01-17T15:23:36.695Z,1000.78
2019-01-17T15:24:36.678Z,1000.77
2019-01-17T15:25:36.675Z,1000.81
2019-01-17T15:26:36.652Z,1000.84
2019-01-17T15:27:36.660Z,1000.83
2019-01-17T15:28:36.629Z,1000.95
2019-01-17T15:29:36.637Z,1000.81
2019-01-17T15:30:36.611Z,1000.89
2019-01-17T15:31:36.603Z,1000.87
2019-01-17T15:32:36.604Z,1000.81
2019-01-17T15:33:36.586Z,1000.89
2019-01-17T15:34:36.564Z,1000.89
2019-01-17T15:35:36.559Z,1000.97
2019-01-17T15:36:36.556Z,1000.94
2019-01-17T15:37:36.554Z,1000.93
2019-01-17T15:38:36.527Z,1000.95
2019-01-17T15:39:36.511Z,1000.94
2019-01-17T15:40:36.524Z,1000.93
2019-01-17T15:41:36.500Z,1000.99
2019-01-17T15:42:36.518Z,1001.04
2019-01-17T15:43:36.475Z,1001.07
2019-01-17T15:44:36.464Z,1001.07
2019-01-17T15:45:36.451Z,1001.08
2019-01-17T15:46:36.442Z,1001.09
2019-01-17T15:47:36.426Z,1001.10
2019-01-17T15:48:36.441Z,1001.07
2019-01-17T15:49:36.418Z,1001.19
2019-01-17T15:50:36.402Z,1001.13
2019-01-17T15:51:36.387Z,1001.15
2019-01-17T15:52:36.381Z,1001.11
2019-01-17T15:53:36.388Z,1001.23
2019-01-17T15:54:36.353Z,1001.11
2019-01-17T15:55:36.357Z,1001.27
2019-01-17T15:56:36.344Z,1001.34
2019-01-17T15:57:36.325Z,1001.35
2019-01-17T15:58:36.338Z,1001.38
2019-01-17T15:59:36.308Z,1001.42
2019-01-17T16:00:36.294Z,1001.46
2019-01-17T16:01:36.283Z,1001.39
2019-01-17T16:02:36.275Z,1001.48
2019-01-17T16:03:36.278Z,1001.54
2019-01-17T16:04:36.252Z,1001.52
2019-01-17T16:20:23.452Z,1001.96
2019-01-17T16:21:23.417Z,1001.95
2019-01-17T16:22:24.217Z,1002.01
2019-01-17T16:23:23.394Z,1001.95
2019-01-17T16:24:23.405Z,1002.00
2019-01-17T16:25:23.383Z,1002.00
2019-01-17T16:26:23.365Z,1002.03
2019-01-17T16:27:23.353Z,1002.02
2019-01-17T16:28:23.342Z,1002.04
2019-01-17T16:29:23.360Z,1002.01
2019-01-17T16:30:23.325Z,1002.07
2019-01-17T16:31:23.342Z,1002.05
2019-01-17T16:32:23.303Z,1002.09
2019-01-17T16:33:23.292Z,1002.07
2019-01-17T16:34:23.297Z,1002.08
2019-01-17T16:35:23.306Z,1002.12
2019-01-17T16:36:23.305Z,1002.15
2019-01-17T16:37:23.284Z,1002.20
2019-01-17T16:38:23.243Z,1002.10
2019-01-17T16:39:23.268Z,1002.18
2019-01-17T16:40:23.226Z,1002.21
2019-01-17T16:41:23.220Z,1002.28
2019-01-17T16:42:23.196Z,1002.23
2019-01-17T16:43:23.191Z,1002.14
2019-01-17T16:44:23.201Z,1002.24
2019-01-17T16:45:23.169Z,1002.28
2019-01-17T16:46:23.167Z,1002.28
2019-01-17T16:47:23.257Z,1002.32
2019-01-17T16:48:23.133Z,1002.31
2019-01-17T16:49:23.148Z,1002.40
2019-01-17T16:50:23.120Z,1002.34
2019-01-17T16:51:23.110Z,1002.35
2019-01-17T16:52:23.094Z,1002.43
2019-01-17T16:53:23.081Z,1002.49
2019-01-17T16:54:23.069Z,1002.42
2019-01-17T16:55:23.074Z,1002.50
2019-01-17T16:56:23.047Z,1002.57
2019-01-17T16:57:23.040Z,1002.49
2019-01-17T16:58:23.043Z,1002.56
2019-01-17T16:59:23.018Z,1002.56
2019-01-17T17:00:23.029Z,1002.53
2019-01-17T17:01:23.007Z,1002.58
2019-01-17T17:02:22.987Z,1002.52
2019-01-17T17:03:22.990Z,1002.55
2019-01-17T17:04:22.965Z,1002.60
2019-01-17T17:05:22.975Z,1002.64
2019-01-17T17:06:22.944Z,1002.68
2019-01-17T17:07:22.938Z,1002.67
2019-01-17T17:08:22.970Z,1002.66
2019-01-17T17:09:22.910Z,1002.65
2019-01-17T17:10:22.919Z,1002.66
2019-01-17T17:11:22.889Z,1002.69
2019-01-17T17:12:22.884Z,1002.61
2019-01-17T17:13:22.872Z,1002.66
2019-01-17T17:14:22.861Z,1002.74
2019-01-17T17:15:22.864Z,1002.74
2019-01-17T17:16:22.836Z,1002.72
2019-01-17T17:17:22.825Z,1002.78
2019-01-17T17:18:22.825Z,1002.76
2019-01-17T17:19:22.820Z,1002.73
2019-01-17T17:20:29.884Z,1002.85
2019-01-17T17:21:22.784Z,1002.81
2019-01-17T17:22:22.772Z,1002.78
2019-01-17T17:23:22.764Z,1002.78
2019-01-17T17:24:22.753Z,1002.90
2019-01-17T17:25:22.767Z,1002.87
2019-01-17T17:26:22.731Z,1002.83
2019-01-17T17:27:22.721Z,1002.86
2019-01-17T17:28:22.718Z,1002.84
2019-01-17T17:29:22.709Z,1002.84
2019-01-17T17:30:22.690Z,1002.88
2019-01-17T17:31:22.705Z,1002.89
2019-01-17T17:32:22.665Z,1002.88
2019-01-17T17:33:22.667Z,1002.92
2019-01-17T17:34:22.652Z,1002.96
2019-01-17T17:35:22.636Z,1002.95
2019-01-17T17:36:22.643Z,1002.92
2019-01-17T17:37:22.623Z,1003.01
2019-01-17T17:38:22.606Z,1002.92
2019-01-17T17:39:22.600Z,1003.03
2019-01-17T17:40:22.599Z,1003.00
2019-01-17T17:41:22.587Z,1003.05
2019-01-17T17:42:22.566Z,1003.10
2019-01-17T17:43:22.551Z,1003.09
2019-01-17T17:44:22.543Z,1003.10
2019-01-17T17:45:22.531Z,1003.14
2019-01-17T17:46:22.535Z,1003.11
2019-01-17T17:47:22.521Z,1003.12
2019-01-17T17:48:22.503Z,1003.16
2019-01-17T17:49:22.489Z,1003.17
2019-01-17T17:50:22.487Z,1003.16
2019-01-17T17:51:22.483Z,1003.20
2019-01-17T17:52:22.456Z,1003.25
2019-01-17T17:53:22.458Z,1003.30
2019-01-17T17:54:22.436Z,1003.28
2019-01-17T17:55:22.432Z,1003.35
2019-01-17T17:56:22.433Z,1003.33
2019-01-17T17:57:22.403Z,1003.28
2019-01-17T17:58:22.391Z,1003.29
2019-01-17T17:59:22.385Z,1003.27
2019-01-17T18:00:22.372Z,1003.36
2019-01-17T18:01:22.378Z,1003.33
2019-01-17T18:02:22.359Z,1003.34
2019-01-17T18:03:22.341Z,1003.35
2019-01-17T18:04:22.334Z,1003.34
2019-01-17T18:05:22.319Z,1003.32
2019-01-17T18:06:22.335Z,1003.33
2019-01-17T18:07:22.298Z,1003.37
2019-01-17T18:08:22.289Z,1003.40
2019-01-17T18:09:22.276Z,1003.29
2019-01-17T18:10:22.278Z,1003.31
2019-01-17T18:11:22.257Z,1003.22
2019-01-17T18:12:22.261Z,1003.30
2019-01-17T18:13:22.238Z,1003.21
2019-01-17T18:14:22.224Z,1003.28
2019-01-17T18:15:22.214Z,1003.43
2019-01-17T18:16:22.202Z,1003.38
2019-01-17T18:17:22.218Z,1003.38
2019-01-17T18:18:22.182Z,1003.38
2019-01-17T18:19:22.170Z,1003.37
2019-01-17T18:20:22.159Z,1003.48
2019-01-17T18:21:22.150Z,1003.36
2019-01-17T18:22:22.157Z,1003.39
2019-01-17T18:23:22.129Z,1003.38
2019-01-17T18:24:22.122Z,1003.40
2019-01-17T18:25:22.120Z,1003.40
2019-01-17T18:26:22.098Z,1003.36
2019-01-17T18:27:22.102Z,1003.36
2019-01-17T18:28:22.077Z,1003.36
2019-01-17T18:29:22.069Z,1003.38
2019-01-17T18:30:22.057Z,1003.35
2019-01-17T18:31:22.051Z,1003.44
2019-01-17T18:32:22.057Z,1003.41
2019-01-17T18:33:22.038Z,1003.44
2019-01-17T18:34:22.012Z,1003.48
2019-01-17T18:35:22.000Z,1003.49
2019-01-17T18:36:21.993Z,1003.50
2019-01-17T18:37:21.999Z,1003.58
2019-01-17T18:38:21.970Z,1003.47
2019-01-17T18:39:21.959Z,1003.52
2019-01-17T18:40:21.960Z,1003.59
2019-01-17T18:41:21.938Z,1003.60
2019-01-17T18:42:21.960Z,1003.62
2019-01-17T18:43:21.925Z,1003.60
2019-01-17T18:44:21.910Z,1003.67
2019-01-17T18:45:21.916Z,1003.63
2019-01-17T18:46:21.900Z,1003.71
2019-01-17T18:47:21.875Z,1003.65
2019-01-17T18:48:21.902Z,1003.73
2019-01-17T18:49:21.860Z,1003.80
2019-01-17T18:50:21.879Z,1003.75
2019-01-17T18:51:21.832Z,1003.84
2019-01-17T18:52:21.843Z,1003.78
2019-01-17T18:53:21.829Z,1003.86
2019-01-17T18:54:21.802Z,1003.86
2019-01-17T18:55:21.794Z,1003.85
2019-01-17T18:56:21.810Z,1003.86
2019-01-17T18:57:21.775Z,1003.89
2019-01-17T18:58:21.799Z,1003.88
2019-01-17T18:59:21.785Z,1003.88
2019-01-17T19:00:21.766Z,1003.94
2019-01-17T19:01:21.831Z,1003.98
2019-01-17T19:02:21.752Z,1003.88
2019-01-17T19:03:21.741Z,1003.99
2019-01-17T19:04:21.717Z,1004.02
2019-01-17T19:05:21.690Z,1004.02
2019-01-17T19:06:21.674Z,1004.03
2019-01-17T19:07:21.668Z,1004.02
2019-01-17T19:08:21.713Z,1004.06
2019-01-17T19:09:21.654Z,1004.15
2019-01-17T19:10:21.649Z,1004.14
2019-01-17T19:11:21.625Z,1004.21
2019-01-17T19:12:21.617Z,1004.19
2019-01-17T19:13:21.609Z,1004.21
2019-01-17T19:14:21.619Z,1004.19
2019-01-17T19:15:21.579Z,1004.29
2019-01-17T19:16:21.575Z,1004.26
2019-01-17T19:17:21.557Z,1004.30
2019-01-17T19:18:21.562Z,1004.32
2019-01-17T19:19:21.556Z,1004.33
2019-01-17T19:20:21.545Z,1004.39
2019-01-17T19:21:21.522Z,1004.39
2019-01-17T19:22:21.515Z,1004.42